ブリスベン の空港の天気 - METARとTAF

ブリスベン空港 ( YBBN / BNE ) - オーストラリア クイーンズランド州ブリスベン
飛行場実況気象(Metar)
観測時間08/11 17:00 AEST (08/11 07:00 UTC)
風向・風速東 3m/s
視程10km以上
天気現象
なし
気温19℃
湿度64%
気圧1017hPa
METARYBBN 110700Z 10006KT CAVOK 19/12 Q1017 FM0900 21008KT 9999 FEW025
過去の天気等 Google飛行場航空写真 Wunderground天気予報

過去48時間のMETAR

飛行場予報(TAF)
発表時間: 8/11 15:07 AEST (8/11 05:07 UTC)
予報対象時間: 11日16時 AEST ~ 12日22時 AEST
風向・風速東 5m/s
視程10km以上
全天の4割程度の雲 雲底高度 1220m
11日19時 AEST から
風向・風速南南西 4m/s
視程10km以上
少しの雲 雲底高度 760m
12日12時 AEST から
風向・風速北北東 5m/s
視程10km以上
少しの雲 雲底高度 1070m
TAF YBBN 110507Z 1106/1212 09010KT 9999 SCT040
FM110900 21008KT 9999 FEW025
FM120200 03010KT 9999 FEW035